Meath Environmental Platform

Observations for Trim Market St

Time AQI Temp °C Hum % Pres Pa CO μg/m³ H₂S μg/m³ NO μg/m³ NO₂ μg/m³ O₃ μg/m³ SO₂ μg/m³ PM1 μg/m³ PM2.5 μg/m³ PM10 μg/m³
Monday 13 July 2026
11:54 1 28.1 42 62,913 0 13.92 0 8.52 50.14 0 4.99 7.53 9.91
11:53 1 28.2 42 63,211 0 13.33 0 7.53 46.93 0 4.99 8.08 9.91
11:52 1 28.3 41 63,527 0 13.3 0 7.24 46.23 0 4.99 8.62 10.72
11:50 1 28.5 41 63,770 0 12.11 0 7.16 42.12 0 5.7 8.13 12.33
11:49 1 28.6 40 64,074 0 11.82 0 6.36 43.88 0 4.28 7.62 9.13
11:48 1 28.8 40 64,272 0 10.84 0 7.15 44.64 0 4.99 8.17 10.75
11:47 1 28.9 40 64,503 0 9.9 0 4.06 43.7 0 6.41 8.72 10.75
11:46 1 29.1 39 64,695 0 8.02 0 3.94 43.18 0 5.7 8.2 11.57
11:45 1 29.2 39 64,845 0 6.17 0 3.04 44.56 0 6.41 8.75 10.77
11:44 1 29.4 39 64,969 0 4.47 0 1.92 38.73 0 7.13 10.36 13.21
11:43 1 29.6 39 65,064 0 2.58 0 1.28 37.25 0 5.7 8.77 11.59
11:42 1 29.8 38 65,153 0 4.09 0 2.06 34.99 0 4.99 8.79 13.23
11:41 1 30 38 65,236 0 4.13 0 4.34 35.45 0 4.99 7.75 9.16
11:35 1 31.2 37 65,704 0 0.23 0 2.88 41.03 0 4.99 8.36 10.82
11:34 1 31.4 36 65,752 0 0 0 0.15 32.62 0 4.99 7.3 10
11:31 1 31.7 36 65,845 0 0 0 0 22.49 0 2.85 5.72 5.87
11:30 1 31.7 36 65,833 0 0 0 5.71 30.43 0 4.99 7.86 12.49
11:20 1 32.3 35 66,007 0 0 0 4.09 30.01 0 2.14 4.71 5.18
11:19 1 32.3 35 66,041 0 0 0 3.3 27.12 0 2.14 5.25 6.69
11:18 1 32.5 35 66,021 0 0 0 8.55 23.76 0 3.56 5.79 5.85